This is the latest recevied weather packets stored in our database for station/object KC5TXI. If no packets are shown the sender has not sent any weather packets the latest 10 day(s).
| Time | Temp. | Humidity | Pressure | Rain* | Wind** | Luminosity | Snow |
|---|---|---|---|---|---|---|---|
| 1777501249 | 17.78° C | 81% | 1014.7 hPa | 0 mm | - | 79 W/m² | - |
| 1777498218 | 18.33° C | 79% | 1014.5 hPa | 0 mm | - | 142 W/m² | - |
| 1777497611 | 18.89° C | 79% | 1014.3 hPa | 0 mm | - | 146 W/m² | - |
| 1777493367 | 18.33° C | 81% | 1014.8 hPa | 0 mm | - | 269 W/m² | - |
| 1777492455 | 17.78° C | 85% | 1015.6 hPa | 0 mm | - | 321 W/m² | - |
| 1777491545 | 17.22° C | 88% | 1016.4 hPa | 0 mm | - | 332 W/m² | - |
| 1777491243 | 17.22° C | 89% | 1016.4 hPa | 0 mm | - | 338 W/m² | - |
| 1777490938 | 17.22° C | 90% | 1016.3 hPa | 0 mm | - | 276 W/m² | - |
| 1777490634 | 17.78° C | 90% | 1016.7 hPa | 0 mm | - | 214 W/m² | - |
| 1777490330 | 16.67° C | 91% | 1016.3 hPa | 1.27 mm | - | 465 W/m² | - |
| 1777490028 | 17.22° C | 91% | 1015.8 hPa | 4.32 mm | - | 377 W/m² | - |
| 1777489726 | 16.11° C | 90% | 1015.4 hPa | 3.05 mm | - | 792 W/m² | - |
| 1777489423 | 15.56° C | 88% | 1017 hPa | 0 mm | - | 65 W/m² | - |
| 1777489120 | 16.11° C | 88% | 1018.2 hPa | 0 mm | - | 6 W/m² | - |
| 1777487910 | 16.11° C | 87% | 1016.4 hPa | 0 mm | - | 57 W/m² | - |
| 1777487608 | 16.67° C | 86% | 1016.3 hPa | 0 mm | - | 61 W/m² | - |
| 1777487305 | 16.67° C | 87% | 1016.4 hPa | 0 mm | - | 210 W/m² | - |
| 1777487002 | 16.11° C | 87% | 1016.5 hPa | 0 mm | - | 168 W/m² | - |
| 1777486698 | 16.11° C | 86% | 1016.3 hPa | 0 mm | - | 161 W/m² | - |
| 1777486396 | 16.11° C | 86% | 1016.8 hPa | 0 mm | - | 48 W/m² | - |
| 1777485790 | 16.11° C | 85% | 1016.9 hPa | 0 mm | - | 89 W/m² | - |
| 1777484877 | 16.11° C | 84% | 1017.5 hPa | 0 mm | - | 45 W/m² | - |
| 1777484575 | 16.11° C | 83% | 1017.8 hPa | 0 mm | - | 48 W/m² | - |
| 1777484265 | 16.11° C | 83% | 1017.5 hPa | 0 mm | - | 72 W/m² | - |
| 1777483962 | 16.11° C | 83% | 1017.8 hPa | 0 mm | - | 46 W/m² | - |
* Rain latest hour (hover to see other rain measurements)
** Current wind speed in m/s (hover to see current wind gust speed)